Campbell AAF (Fort Campbell) Air Field
KHOP : rendu visible

Aérodrome :











RETROUVEZ-NOUS SUR...

 
LOGIN :

S'inscrire | Disclaimer

   EN    FR    IT 

 









Légende :    VFR   VFR Marginal   IFR   IFR Intensif   IFR Très Intensif
Visi : 
Plafond : 
>= 8 km
>= 3000ft
5 à 8 km
1000 à 3000 ft
1500m à 5 km
500 à 1000 ft
800 à 1500m
200 à 500 ft
< 800m
< 200 ft
Symboles :   Orages  Brouillard  Fortes neiges  Fortes précipitations  Vent > 20 kt






- Altitude de l'aérodrome : 573 ft


KHOP - Campbell AAF (Fort Campbell) Air Field

DERNIER METAR :
  • 031256Z AUTO 22005KT 10SM CLR 24/19 A3002 RMK AO2 SLP163 T02380189

METARs EXPIRÉS :
  • 031156Z AUTO 00000KT 10SM CLR 22/18 A3002 RMK AO2 SLP163 T02210177 10221 20190 53000 $
  • 031056Z AUTO 21003KT 10SM CLR 20/17 A3002 RMK AO2 SLP163 T01950174 $

TAF TAF KHOP
Valide du 03 à 08h jusqu'au 04 à 14h UTC


030800Z 0308/0414 VRB06KT 9999 FEW120 QNH3000INS
BECMG 0314/0315 25012G18KT 9999 FEW250 QNH2989INS
BECMG 0320/0321 22006KT 9999 BKN035 QNH2987INS
TEMPO 0321/0323 25010G15KT -TSRA BKN035CB TX29/0320Z TN18/0308Z
FIR KZME / Amérique du Nord



MET'MAP, la Météo Aéronautique d'un coup d'oeil ! - Copyright ORBIFLY Décembre 2007 - Disclaimer

ORBIFLY MET'MAP TEAM :

Programmation & Développement : Alexandra Zaïnal
Sur une idée originale de : Baudouin d'Aumeries
Assistance à la programmation : Marc-Olivier Méhu
Soutien technique & logistique : Manuel Goepfert

Contact : metmap@orbifly.com




SOURCES & CREDITS :

   NOAA       Earth
Advisory